Time;durP1;ratioP1;P1;durP2;ratioP2;P2;SDS_P1;SDS_P2;PMS_P1;PMS_P2;Temp;Humidity;BMP_temperature;BMP_pressure;BME280_temperature;BME280_humidity;BME280_pressure;Samples;Min_cycle;Max_cycle;Signal;HPM_P1;HPM_P2
2021/06/24 00:02:19;;;;;;;0.35;0.10;;;18.20;99.90;;;;;;5052344;28;20430;-72
2021/06/24 00:04:44;;;;;;;2.85;1.08;;;18.00;99.90;;;;;;5052228;28;20040;-72
2021/06/24 00:07:10;;;;;;;0.60;0.60;;;17.70;99.90;;;;;;5050933;28;20021;-72
2021/06/24 00:09:36;;;;;;;0.20;0.20;;;17.60;99.90;;;;;;5049917;28;20030;-72
2021/06/24 00:12:02;;;;;;;0.93;0.73;;;17.40;99.90;;;;;;5034191;28;20152;-73
2021/06/24 00:14:28;;;;;;;0.30;0.30;;;17.20;99.90;;;;;;5052173;28;20032;-72
2021/06/24 00:16:53;;;;;;;0.43;0.43;;;17.20;99.90;;;;;;5050807;28;20032;-72
2021/06/24 00:19:19;;;;;;;1.35;0.55;;;17.20;99.90;;;;;;5033990;28;20032;-72
2021/06/24 00:21:45;;;;;;;1.58;0.47;;;17.20;99.90;;;;;;5051978;28;20032;-72
2021/06/24 00:24:10;;;;;;;6.03;0.30;;;17.10;99.90;;;;;;5051971;28;20036;-72
2021/06/24 00:26:36;;;;;;;0.98;0.60;;;17.10;99.90;;;;;;5052435;28;20039;-73
2021/06/24 00:29:02;;;;;;;0.00;0.00;;;16.90;99.90;;;;;;5052035;28;20316;-72
2021/06/24 00:31:28;;;;;;;0.77;0.73;;;16.80;99.90;;;;;;5051706;28;20025;-72
2021/06/24 00:33:54;;;;;;;0.10;0.10;;;16.80;99.90;;;;;;5051933;28;20396;-72
2021/06/24 00:36:19;;;;;;;0.55;0.52;;;16.80;99.90;;;;;;5051938;28;20131;-73
2021/06/24 00:38:45;;;;;;;0.70;0.60;;;16.80;99.90;;;;;;5051745;28;20028;-72
2021/06/24 00:41:11;;;;;;;0.03;0.03;;;16.70;99.90;;;;;;5052140;28;20376;-73
2021/06/24 00:43:37;;;;;;;0.38;0.25;;;16.80;99.90;;;;;;5033874;28;20100;-72
2021/06/24 00:46:03;;;;;;;4.38;2.63;;;16.80;99.90;;;;;;5051813;28;20504;-72
2021/06/24 00:48:29;;;;;;;0.15;0.15;;;16.80;99.90;;;;;;5051399;28;20033;-72
2021/06/24 00:50:54;;;;;;;0.10;0.10;;;16.70;99.90;;;;;;5033856;28;20052;-73
2021/06/24 00:53:20;;;;;;;0.47;0.47;;;16.80;99.90;;;;;;5050394;28;20021;-72
2021/06/24 00:55:46;;;;;;;0.25;0.25;;;16.80;99.90;;;;;;5051705;28;20028;-73
2021/06/24 00:58:20;;;;;;;0.40;0.40;;;16.70;99.90;;;;;;5051722;28;20051;-72
2021/06/24 01:00:51;;;;;;;0.30;0.30;;;16.80;99.90;;;;;;5017446;28;20029;-72
2021/06/24 01:03:18;;;;;;;0.20;0.20;;;16.70;99.90;;;;;;5033606;28;20059;-72
2021/06/24 01:05:44;;;;;;;0.10;0.10;;;16.70;99.90;;;;;;5051659;28;20102;-72
2021/06/24 01:08:11;;;;;;;0.10;0.10;;;16.70;99.90;;;;;;5033614;28;20021;-72
2021/06/24 01:10:38;;;;;;;0.17;0.17;;;16.70;99.90;;;;;;5033675;28;20120;-72
2021/06/24 01:13:05;;;;;;;0.10;0.10;;;16.70;99.90;;;;;;5033645;28;20116;-73
2021/06/24 01:15:31;;;;;;;0.08;0.08;;;16.90;99.90;;;;;;5051415;28;20032;-73
2021/06/24 01:18:00;;;;;;;0.05;0.05;;;16.90;99.90;;;;;;5033622;28;20028;-72
2021/06/24 01:20:31;;;;;;;0.85;0.55;;;17.00;99.90;;;;;;5033969;28;20086;-72
2021/06/24 01:22:57;;;;;;;0.25;0.25;;;17.00;99.90;;;;;;5055372;28;20017;-73
2021/06/24 01:25:23;;;;;;;0.65;0.52;;;16.90;99.90;;;;;;5037357;28;20528;-73
2021/06/24 01:27:56;;;;;;;0.10;0.10;;;16.80;99.90;;;;;;5055099;28;20052;-73
2021/06/24 01:30:22;;;;;;;0.10;0.10;;;17.00;99.90;;;;;;5037244;28;20031;-73
2021/06/24 01:32:48;;;;;;;0.00;0.00;;;17.00;99.90;;;;;;5037270;28;20025;-72
2021/06/24 01:35:18;;;;;;;0.10;0.10;;;17.10;99.90;;;;;;5037472;28;20108;-73
2021/06/24 01:37:44;;;;;;;0.57;0.22;;;17.20;99.90;;;;;;5054875;28;20049;-72
2021/06/24 01:40:10;;;;;;;0.10;0.10;;;16.80;99.90;;;;;;5054971;28;20053;-73
2021/06/24 01:42:36;;;;;;;0.20;0.20;;;16.70;99.90;;;;;;5020564;28;20484;-72
2021/06/24 01:45:02;;;;;;;0.20;0.20;;;16.60;99.90;;;;;;5036922;28;20108;-72
2021/06/24 01:47:28;;;;;;;0.10;0.10;;;16.40;99.90;;;;;;5036878;28;20025;-72
2021/06/24 01:49:54;;;;;;;0.10;0.10;;;16.40;99.90;;;;;;5053592;28;20033;-72
2021/06/24 01:52:19;;;;;;;0.05;0.05;;;16.50;99.90;;;;;;5037017;28;20400;-73
2021/06/24 01:54:47;;;;;;;0.22;0.22;;;16.60;99.90;;;;;;5036747;28;20033;-72
2021/06/24 01:57:16;;;;;;;1.10;1.00;;;16.70;99.90;;;;;;5054650;28;20017;-72
2021/06/24 01:59:42;;;;;;;0.10;0.10;;;16.70;99.90;;;;;;5036776;28;20035;-72
2021/06/24 02:02:08;;;;;;;0.98;0.52;;;16.70;99.90;;;;;;5054562;28;20025;-72
2021/06/24 02:04:33;;;;;;;0.10;0.10;;;16.70;99.90;;;;;;5036751;28;20033;-72
2021/06/24 02:07:00;;;;;;;0.10;0.10;;;16.70;99.90;;;;;;5053293;28;20067;-72
2021/06/24 02:09:25;;;;;;;0.13;0.13;;;16.50;99.90;;;;;;5054326;28;20029;-72
2021/06/24 02:11:56;;;;;;;0.50;0.50;;;16.40;99.90;;;;;;5054338;28;20079;-72
2021/06/24 02:14:21;;;;;;;0.20;0.20;;;16.20;99.90;;;;;;5019981;28;20488;-72
2021/06/24 02:16:47;;;;;;;0.25;0.25;;;16.00;99.90;;;;;;5036354;28;20036;-72
2021/06/24 02:19:14;;;;;;;0.10;0.10;;;15.90;99.90;;;;;;5053780;28;20029;-72
2021/06/24 02:21:40;;;;;;;0.25;0.25;;;15.90;99.90;;;;;;5052904;28;20049;-72
2021/06/24 02:24:06;;;;;;;0.10;0.10;;;15.80;99.90;;;;;;5054320;28;20057;-72
2021/06/24 02:26:32;;;;;;;0.20;0.20;;;15.90;99.90;;;;;;5036502;28;20130;-72
2021/06/24 02:28:57;;;;;;;0.32;0.32;;;16.00;99.90;;;;;;5035891;28;20017;-72
2021/06/24 02:31:24;;;;;;;0.88;0.30;;;16.00;99.90;;;;;;5053981;28;20021;-72
2021/06/24 02:33:50;;;;;;;0.50;0.50;;;15.90;99.90;;;;;;5052864;28;20048;-72
2021/06/24 02:36:16;;;;;;;0.10;0.10;;;15.80;99.90;;;;;;5054057;28;20385;-72
2021/06/24 02:38:41;;;;;;;0.00;0.00;;;15.80;99.90;;;;;;5053727;28;20025;-72
2021/06/24 02:41:07;;;;;;;0.10;0.10;;;15.80;99.90;;;;;;5054239;28;20044;-72
2021/06/24 02:43:33;;;;;;;0.05;0.05;;;15.80;99.90;;;;;;5035849;28;20127;-72
2021/06/24 02:45:59;;;;;;;0.30;0.30;;;16.00;99.90;;;;;;5053844;28;20280;-73
2021/06/24 02:48:25;;;;;;;0.10;0.10;;;16.10;99.90;;;;;;5035529;28;20032;-72
2021/06/24 02:50:51;;;;;;;0.10;0.10;;;16.10;99.90;;;;;;5035805;28;20388;-73
2021/06/24 02:53:17;;;;;;;0.20;0.20;;;16.30;99.90;;;;;;5053636;28;20036;-72
2021/06/24 02:55:43;;;;;;;0.17;0.17;;;16.20;99.90;;;;;;5036164;28;20033;-73
2021/06/24 02:58:09;;;;;;;0.10;0.10;;;16.20;99.90;;;;;;5053647;28;20075;-72
2021/06/24 03:00:35;;;;;;;0.10;0.10;;;16.30;99.90;;;;;;5035864;28;20468;-72
2021/06/24 03:03:01;;;;;;;0.10;0.10;;;16.60;99.90;;;;;;5053359;28;20025;-72
2021/06/24 03:05:27;;;;;;;0.03;0.03;;;16.90;99.90;;;;;;5053480;28;20036;-73
2021/06/24 03:07:53;;;;;;;0.75;0.75;;;16.90;99.90;;;;;;5018901;28;20056;-73
2021/06/24 03:10:20;;;;;;;0.08;0.08;;;16.60;99.90;;;;;;5035398;28;20033;-73
2021/06/24 03:12:46;;;;;;;0.10;0.10;;;16.70;99.90;;;;;;5053224;28;20468;-73
2021/06/24 03:15:13;;;;;;;0.10;0.10;;;16.80;99.90;;;;;;5035613;28;20027;-72
2021/06/24 03:17:39;;;;;;;0.10;0.10;;;16.90;99.90;;;;;;5052890;28;20087;-72
2021/06/24 03:20:07;;;;;;;0.60;0.60;;;17.00;99.90;;;;;;5052861;28;20028;-72
2021/06/24 03:22:34;;;;;;;0.10;0.10;;;17.10;99.90;;;;;;5053139;28;20024;-73
2021/06/24 03:25:01;;;;;;;0.00;0.00;;;17.00;99.90;;;;;;5053076;28;20136;-73
2021/06/24 03:27:28;;;;;;;0.10;0.10;;;16.90;99.90;;;;;;5052755;28;20024;-72
2021/06/24 03:29:54;;;;;;;0.10;0.10;;;16.80;99.90;;;;;;5035040;28;20416;-73
2021/06/24 03:32:19;;;;;;;0.10;0.10;;;16.80;99.90;;;;;;5035086;28;20400;-73
2021/06/24 03:34:45;;;;;;;0.10;0.10;;;16.80;99.90;;;;;;5052864;28;20071;-72
2021/06/24 03:37:11;;;;;;;0.10;0.10;;;16.70;99.90;;;;;;5052817;28;20039;-72
2021/06/24 03:39:38;;;;;;;0.10;0.10;;;16.50;99.90;;;;;;5052775;28;20031;-72
2021/06/24 03:42:04;;;;;;;0.10;0.10;;;16.40;99.90;;;;;;5052513;28;20458;-73
2021/06/24 03:44:30;;;;;;;0.10;0.10;;;16.50;99.90;;;;;;5052391;28;20029;-72
2021/06/24 03:46:55;;;;;;;0.10;0.10;;;16.80;99.90;;;;;;5052652;28;20092;-72
2021/06/24 03:49:21;;;;;;;4.38;2.15;;;16.70;99.90;;;;;;5034510;28;20377;-72
2021/06/24 03:51:47;;;;;;;0.10;0.10;;;16.80;99.90;;;;;;5052475;28;20057;-73
2021/06/24 03:54:13;;;;;;;0.05;0.05;;;16.60;99.90;;;;;;5034744;28;20025;-72
2021/06/24 03:56:39;;;;;;;0.10;0.10;;;16.70;99.90;;;;;;5052311;28;20036;-73
2021/06/24 03:59:05;;;;;;;0.45;0.45;;;16.70;99.90;;;;;;5052340;28;20108;-73
2021/06/24 04:01:31;;;;;;;0.10;0.10;;;17.00;99.90;;;;;;5034449;28;20116;-73
2021/06/24 04:03:57;;;;;;;0.10;0.10;;;17.10;99.90;;;;;;5034412;28;20079;-73
2021/06/24 04:06:22;;;;;;;0.10;0.10;;;17.20;99.90;;;;;;5052333;28;20029;-72
2021/06/24 04:08:48;;;;;;;0.10;0.10;;;17.30;99.90;;;;;;5052107;28;20431;-72
2021/06/24 04:11:14;;;;;;;0.10;0.10;;;17.40;99.90;;;;;;5052185;28;20057;-72
2021/06/24 04:13:40;;;;;;;0.10;0.10;;;17.60;99.90;;;;;;5052185;28;20025;-73
2021/06/24 04:16:06;;;;;;;0.10;0.10;;;17.70;99.90;;;;;;5052143;28;20086;-73
2021/06/24 04:18:33;;;;;;;0.10;0.10;;;17.40;99.90;;;;;;5052007;28;20024;-73
2021/06/24 04:20:59;;;;;;;0.10;0.10;;;17.40;99.90;;;;;;5033895;28;20075;-73
2021/06/24 04:23:24;;;;;;;0.10;0.10;;;17.60;99.90;;;;;;5051794;28;20120;-72
2021/06/24 04:25:51;;;;;;;0.10;0.10;;;17.40;99.90;;;;;;5051931;28;20029;-73
2021/06/24 04:28:17;;;;;;;0.20;0.20;;;17.30;99.90;;;;;;5051812;28;20087;-73
2021/06/24 04:30:42;;;;;;;0.10;0.10;;;17.40;99.90;;;;;;5051837;28;20021;-72
2021/06/24 04:33:08;;;;;;;0.10;0.10;;;17.20;99.90;;;;;;5051784;28;20028;-72
2021/06/24 04:35:36;;;;;;;0.10;0.10;;;17.20;99.90;;;;;;5051897;28;20021;-72
2021/06/24 04:38:03;;;;;;;0.10;0.10;;;17.40;99.90;;;;;;5033814;28;20110;-73
2021/06/24 04:40:28;;;;;;;0.10;0.10;;;17.20;99.90;;;;;;5033841;28;20083;-72
2021/06/24 04:42:54;;;;;;;1.13;0.70;;;17.30;99.90;;;;;;5051679;28;20483;-73
2021/06/24 04:45:20;;;;;;;0.13;0.10;;;17.20;99.90;;;;;;5051903;28;20548;-72
2021/06/24 04:47:48;;;;;;;0.10;0.10;;;17.20;99.90;;;;;;5051567;28;20048;-72
2021/06/24 04:50:15;;;;;;;0.20;0.20;;;17.30;99.90;;;;;;5051769;28;20024;-72
2021/06/24 04:52:40;;;;;;;0.10;0.10;;;17.30;99.90;;;;;;5051438;28;20095;-72
2021/06/24 04:55:07;;;;;;;0.10;0.10;;;17.40;99.90;;;;;;5051695;28;20061;-72
2021/06/24 04:57:33;;;;;;;0.20;0.20;;;17.60;99.90;;;;;;5037849;28;20029;-72
2021/06/24 04:59:58;;;;;;;0.10;0.10;;;17.70;99.90;;;;;;5038087;28;20108;-73
2021/06/24 05:02:24;;;;;;;0.10;0.10;;;17.70;99.90;;;;;;5055628;28;20032;-73
2021/06/24 05:04:51;;;;;;;0.10;0.10;;;17.80;99.90;;;;;;4972539;23;20444;-76
2021/06/24 05:07:17;;;;;;;0.10;0.10;;;17.70;99.90;;;;;;4954338;28;20391;-76
2021/06/24 05:09:45;;;;;;;0.10;0.10;;;17.60;99.90;;;;;;4999531;28;20047;-76
2021/06/24 05:12:11;;;;;;;0.10;0.10;;;17.60;99.90;;;;;;4992115;28;20480;-76
2021/06/24 05:14:41;;;;;;;0.00;0.00;;;17.90;99.90;;;;;;4992507;28;20029;-76
2021/06/24 05:17:11;;;;;;;0.17;0.17;;;18.00;99.90;;;;;;4958283;28;20070;-77
2021/06/24 05:19:37;;;;;;;0.03;0.03;;;18.00;99.90;;;;;;4984209;28;20122;-76
2021/06/24 05:22:03;;;;;;;0.08;0.08;;;18.20;99.90;;;;;;4959145;28;20120;-76
2021/06/24 05:24:29;;;;;;;0.10;0.10;;;18.40;99.90;;;;;;4996897;28;20070;-76
2021/06/24 05:26:55;;;;;;;0.22;0.22;;;18.50;99.90;;;;;;4972632;28;20459;-76
2021/06/24 05:29:21;;;;;;;0.10;0.10;;;18.50;99.90;;;;;;4977408;28;20030;-76
2021/06/24 05:31:47;;;;;;;0.00;0.00;;;18.60;99.90;;;;;;5016762;28;20034;-76
2021/06/24 05:34:12;;;;;;;0.10;0.10;;;18.60;99.90;;;;;;4954026;28;20059;-76
2021/06/24 05:36:38;;;;;;;0.10;0.10;;;18.70;99.90;;;;;;4961281;28;20085;-76
2021/06/24 05:39:04;;;;;;;0.38;0.38;;;18.80;99.90;;;;;;4983937;28;20034;-76
2021/06/24 05:41:31;;;;;;;0.10;0.10;;;18.80;99.90;;;;;;4995074;28;20021;-76
2021/06/24 05:43:57;;;;;;;0.10;0.10;;;18.90;99.90;;;;;;5014553;28;20033;-76
2021/06/24 05:46:22;;;;;;;0.03;0.03;;;18.90;99.90;;;;;;4959713;28;20500;-76
2021/06/24 05:48:51;;;;;;;0.05;0.05;;;18.90;99.90;;;;;;5013496;28;20392;-76
2021/06/24 05:51:18;;;;;;;0.00;0.00;;;18.90;99.90;;;;;;4982711;28;20036;-76
2021/06/24 05:53:44;;;;;;;0.00;0.00;;;19.00;99.90;;;;;;4998773;28;20027;-77
2021/06/24 05:56:09;;;;;;;0.00;0.00;;;19.10;99.90;;;;;;4972572;28;20031;-76
2021/06/24 05:58:35;;;;;;;0.10;0.10;;;19.00;99.90;;;;;;4992972;28;20036;-76
2021/06/24 06:01:01;;;;;;;0.10;0.10;;;19.00;99.90;;;;;;4978699;28;20037;-76
2021/06/24 06:03:27;;;;;;;0.08;0.08;;;19.10;99.90;;;;;;4976784;28;20040;-75
2021/06/24 06:05:53;;;;;;;0.10;0.10;;;19.10;99.90;;;;;;4944323;28;20030;-76
2021/06/24 06:08:20;;;;;;;0.10;0.10;;;19.30;99.90;;;;;;5005806;28;20096;-76
2021/06/24 06:10:46;;;;;;;0.40;0.40;;;19.20;99.90;;;;;;4947583;28;20063;-77
2021/06/24 06:13:13;;;;;;;0.10;0.10;;;19.20;99.90;;;;;;4992051;28;20024;-77
2021/06/24 06:15:41;;;;;;;0.10;0.10;;;19.20;99.90;;;;;;4989479;28;20019;-77
2021/06/24 06:18:23;;;;;;;0.10;0.10;;;19.20;99.90;;;;;;5003790;28;20056;-77
2021/06/24 06:20:49;;;;;;;0.10;0.10;;;19.10;99.90;;;;;;5003635;28;20026;-76
2021/06/24 06:23:17;;;;;;;0.10;0.10;;;19.20;99.90;;;;;;4989232;28;20022;-77
2021/06/24 06:25:44;;;;;;;0.10;0.10;;;19.20;99.90;;;;;;4956294;28;20475;-77
2021/06/24 06:28:12;;;;;;;0.10;0.10;;;19.30;99.90;;;;;;4988575;28;20017;-77
2021/06/24 06:30:38;;;;;;;0.10;0.10;;;19.50;99.90;;;;;;4996262;28;20544;-77
2021/06/24 06:33:04;;;;;;;0.25;0.17;;;19.70;99.90;;;;;;5009711;28;20023;-77
2021/06/24 06:35:31;;;;;;;0.10;0.10;;;19.80;99.90;;;;;;4961980;28;20023;-78
2021/06/24 06:37:57;;;;;;;0.00;0.00;;;19.80;99.90;;;;;;4994993;28;20034;-77
2021/06/24 06:40:22;;;;;;;0.10;0.10;;;19.80;99.90;;;;;;5002116;28;20485;-77
2021/06/24 06:42:48;;;;;;;0.10;0.10;;;19.80;99.90;;;;;;5006562;28;20022;-76
2021/06/24 06:45:17;;;;;;;0.10;0.10;;;19.70;99.90;;;;;;4975931;28;20032;-77
2021/06/24 06:47:44;;;;;;;0.17;0.17;;;19.90;99.90;;;;;;4967321;28;20061;-76
2021/06/24 06:50:10;;;;;;;0.20;0.20;;;20.00;99.90;;;;;;4993237;28;20026;-76
2021/06/24 06:52:36;;;;;;;0.10;0.10;;;20.00;99.90;;;;;;4990977;28;20033;-77
2021/06/24 06:55:02;;;;;;;0.03;0.03;;;20.20;99.90;;;;;;4972848;28;20039;-77
2021/06/24 06:57:28;;;;;;;0.10;0.10;;;20.30;99.90;;;;;;4955691;28;20386;-76
2021/06/24 06:59:53;;;;;;;0.10;0.10;;;20.40;99.90;;;;;;4974513;28;20032;-77
2021/06/24 07:02:19;;;;;;;0.10;0.10;;;20.60;99.90;;;;;;4941433;28;20031;-84
2021/06/24 07:04:45;;;;;;;0.10;0.10;;;20.60;99.90;;;;;;4966436;28;20038;-82
2021/06/24 07:07:11;;;;;;;0.20;0.20;;;20.60;99.90;;;;;;4931985;28;20038;-86
2021/06/24 07:09:37;;;;;;;0.10;0.10;;;20.60;99.90;;;;;;5002166;28;20046;-82
2021/06/24 07:12:03;;;;;;;0.05;0.05;;;20.70;99.90;;;;;;4979799;28;20023;-80
2021/06/24 07:14:29;;;;;;;0.10;0.10;;;20.90;99.90;;;;;;4986942;28;20031;-84
2021/06/24 07:16:57;;;;;;;0.00;0.00;;;21.00;99.90;;;;;;4992249;28;20032;-84
2021/06/24 07:19:23;;;;;;;0.00;0.00;;;21.20;99.90;;;;;;4998813;28;20026;-83
2021/06/24 07:21:48;;;;;;;0.10;0.10;;;21.10;99.60;;;;;;4963821;28;20037;-80
2021/06/24 07:24:14;;;;;;;0.10;0.10;;;21.10;99.40;;;;;;4970424;28;20037;-83
2021/06/24 07:26:40;;;;;;;0.10;0.10;;;21.20;98.10;;;;;;5002508;28;20024;-83
2021/06/24 07:29:06;;;;;;;0.10;0.10;;;21.20;97.30;;;;;;4968091;28;20078;-84
2021/06/24 07:31:33;;;;;;;0.17;0.17;;;21.50;97.10;;;;;;4968357;28;20085;-83
2021/06/24 07:33:59;;;;;;;0.10;0.10;;;21.60;95.80;;;;;;4969737;28;20031;-83
2021/06/24 07:36:24;;;;;;;0.10;0.10;;;21.40;94.70;;;;;;4985494;28;20027;-83
2021/06/24 07:38:50;;;;;;;0.00;0.00;;;21.70;95.00;;;;;;4999401;28;20021;-83
2021/06/24 07:41:16;;;;;;;0.10;0.10;;;21.60;94.20;;;;;;4957620;28;20098;-84
2021/06/24 07:43:41;;;;;;;0.03;0.03;;;21.60;95.90;;;;;;4949397;28;20053;-81
2021/06/24 07:46:08;;;;;;;0.00;0.00;;;21.90;95.30;;;;;;4971376;28;20037;-81
2021/06/24 07:48:34;;;;;;;0.00;0.00;;;21.90;95.40;;;;;;5004980;28;20085;-81
2021/06/24 07:50:59;;;;;;;2.40;0.10;;;22.20;96.00;;;;;;5010219;28;20021;-81
2021/06/24 07:53:25;;;;;;;0.10;0.10;;;22.50;94.50;;;;;;4950266;28;20032;-81
2021/06/24 07:55:51;;;;;;;0.08;0.08;;;22.30;93.40;;;;;;5006003;28;20035;-82
2021/06/24 07:58:17;;;;;;;0.20;0.10;;;22.20;94.50;;;;;;4981796;28;20028;-81
2021/06/24 08:00:43;;;;;;;3.60;0.10;;;22.40;93.00;;;;;;5018043;28;20021;-82
2021/06/24 08:03:08;;;;;;;0.10;0.10;;;22.30;93.30;;;;;;4977860;28;20088;-82
2021/06/24 08:05:34;;;;;;;0.00;0.00;;;22.50;92.70;;;;;;4987529;28;20556;-81
2021/06/24 08:08:00;;;;;;;0.00;0.00;;;22.70;92.60;;;;;;5013856;28;20097;-82
2021/06/24 08:10:26;;;;;;;0.00;0.00;;;23.00;91.10;;;;;;4954947;28;20027;-81
2021/06/24 08:12:51;;;;;;;0.73;0.25;;;23.00;88.70;;;;;;4983015;28;20032;-81
2021/06/24 08:15:20;;;;;;;1.08;0.45;;;23.20;89.30;;;;;;4964461;28;20054;-82
2021/06/24 08:17:46;;;;;;;0.77;0.77;;;23.10;87.70;;;;;;4996260;28;20026;-81
2021/06/24 08:20:13;;;;;;;0.20;0.20;;;23.00;88.20;;;;;;4992650;28;20466;-81
2021/06/24 08:22:39;;;;;;;0.32;0.32;;;23.00;89.70;;;;;;4974772;28;20029;-82
2021/06/24 08:25:06;;;;;;;0.10;0.10;;;23.20;84.90;;;;;;5007452;28;20049;-81
2021/06/24 08:27:34;;;;;;;0.20;0.20;;;23.60;86.00;;;;;;4965629;28;20022;-81
2021/06/24 08:30:00;;;;;;;0.00;0.00;;;23.60;82.20;;;;;;4969830;28;20017;-82
2021/06/24 08:32:26;;;;;;;0.00;0.00;;;23.80;84.60;;;;;;4976105;28;20454;-82
2021/06/24 08:34:52;;;;;;;0.22;0.20;;;24.10;81.70;;;;;;4953497;28;20061;-82
2021/06/24 08:37:18;;;;;;;0.00;0.00;;;24.30;80.20;;;;;;4997967;28;20081;-82
2021/06/24 08:39:44;;;;;;;0.10;0.10;;;24.20;82.30;;;;;;4988019;28;20027;-83
2021/06/24 08:42:13;;;;;;;0.00;0.00;;;24.40;81.20;;;;;;4967848;28;20034;-82
2021/06/24 08:44:39;;;;;;;0.05;0.05;;;24.70;79.00;;;;;;4940696;28;20047;-82
2021/06/24 08:47:07;;;;;;;0.20;0.20;;;25.00;76.90;;;;;;4949261;28;20021;-82
2021/06/24 08:49:35;;;;;;;0.35;0.35;;;25.10;76.20;;;;;;4979769;28;20097;-81
2021/06/24 08:52:01;;;;;;;0.75;0.75;;;24.90;76.40;;;;;;4987258;28;20022;-80
2021/06/24 08:54:27;;;;;;;0.45;0.45;;;24.90;78.30;;;;;;4967722;28;20109;-81
2021/06/24 08:56:53;;;;;;;0.00;0.00;;;25.00;77.10;;;;;;5001321;28;20029;-81
2021/06/24 08:59:19;;;;;;;3.40;0.82;;;24.90;78.10;;;;;;4981339;28;20449;-81
2021/06/24 09:01:47;;;;;;;0.00;0.00;;;25.10;75.80;;;;;;4973785;28;20125;-80
2021/06/24 09:04:17;;;;;;;0.15;0.15;;;24.70;76.90;;;;;;4970550;28;20035;-81
2021/06/24 09:06:43;;;;;;;0.00;0.00;;;24.90;76.50;;;;;;4998968;28;20024;-81
2021/06/24 09:09:09;;;;;;;1.50;0.25;;;25.20;74.60;;;;;;4933451;28;20593;-81
2021/06/24 09:11:35;;;;;;;0.52;0.35;;;25.50;72.40;;;;;;4971923;28;20022;-81
2021/06/24 09:14:10;;;;;;;0.30;0.30;;;25.30;72.50;;;;;;4962319;28;20037;-81
2021/06/24 09:16:40;;;;;;;0.00;0.00;;;24.60;74.60;;;;;;4999207;28;20029;-81
2021/06/24 09:19:23;;;;;;;0.00;0.00;;;24.60;75.00;;;;;;4980317;28;20108;-82
2021/06/24 09:22:02;;;;;;;0.00;0.00;;;25.00;75.50;;;;;;4962457;28;20025;-81
2021/06/24 09:24:34;;;;;;;0.00;0.00;;;25.50;73.80;;;;;;4922328;28;20032;-81
2021/06/24 09:27:01;;;;;;;;;;;25.80;70.80;;;;;;4960437;28;20404;-81
2021/06/24 09:29:27;;;;;;;0.10;0.10;;;25.30;72.70;;;;;;4969916;28;19909;-80
2021/06/24 09:31:56;;;;;;;0.05;0.05;;;24.70;74.40;;;;;;5018344;28;20491;-80
2021/06/24 09:34:22;;;;;;;0.00;0.00;;;24.70;74.30;;;;;;4932436;28;20035;-80
2021/06/24 09:36:53;;;;;;;0.00;0.00;;;24.80;77.40;;;;;;4963991;28;20110;-80
2021/06/24 09:39:48;;;;;;;0.10;0.10;;;25.20;74.40;;;;;;4988968;28;20079;-80
2021/06/24 09:42:14;;;;;;;0.00;0.00;;;25.80;73.50;;;;;;4982431;28;20050;-81
2021/06/24 09:44:47;;;;;;;0.00;0.00;;;26.30;69.90;;;;;;4990082;28;20052;-82
2021/06/24 09:47:27;;;;;;;0.20;0.20;;;26.40;70.10;;;;;;4999559;28;20025;-80
2021/06/24 09:50:01;;;;;;;0.00;0.00;;;26.70;71.00;;;;;;4997859;28;20075;-82
2021/06/24 09:52:28;;;;;;;0.00;0.00;;;27.10;66.80;;;;;;4965869;28;20403;-82
2021/06/24 09:55:30;;;;;;;0.30;0.30;;;26.70;68.20;;;;;;4988058;28;20025;-81
2021/06/24 09:58:17;;;;;;;0.00;0.00;;;26.70;67.70;;;;;;4949356;28;20037;-81
2021/06/24 10:00:52;;;;;;;0.03;0.03;;;27.00;67.10;;;;;;4973470;28;20081;-77
2021/06/24 10:03:19;;;;;;;0.00;0.00;;;27.50;64.20;;;;;;4993983;28;20668;-77
2021/06/24 10:05:46;;;;;;;0.00;0.00;;;27.50;62.40;;;;;;4995480;28;20471;-77
2021/06/24 10:08:12;;;;;;;3.53;0.52;;;27.70;62.80;;;;;;4995222;28;20019;-76
2021/06/24 10:10:41;;;;;;;0.10;0.10;;;27.70;62.20;;;;;;5013218;28;20022;-77
2021/06/24 10:13:08;;;;;;;0.00;0.00;;;27.50;61.30;;;;;;4999983;28;20245;-77
2021/06/24 10:15:34;;;;;;;0.20;0.20;;;27.70;62.10;;;;;;5002520;28;20027;-77
2021/06/24 10:18:00;;;;;;;0.00;0.00;;;28.00;60.50;;;;;;4930256;28;20043;-77
2021/06/24 10:20:29;;;;;;;30.13;0.73;;;27.70;61.30;;;;;;5014664;28;20058;-78
2021/06/24 10:23:15;;;;;;;0.20;0.20;;;27.30;61.50;;;;;;4968801;28;20033;-76
2021/06/24 10:25:44;;;;;;;0.60;0.60;;;27.40;61.90;;;;;;4935630;28;20428;-77
2021/06/24 10:28:12;;;;;;;0.00;0.00;;;28.10;62.00;;;;;;5003828;28;20134;-77
2021/06/24 10:30:40;;;;;;;0.00;0.00;;;28.20;60.20;;;;;;4989298;28;20021;-78
2021/06/24 10:33:10;;;;;;;0.00;0.00;;;27.90;59.90;;;;;;4940058;28;20016;-78
2021/06/24 10:35:41;;;;;;;0.13;0.13;;;27.70;62.50;;;;;;4966902;28;20017;-77
2021/06/24 10:38:08;;;;;;;0.00;0.00;;;27.20;62.50;;;;;;4964453;28;20026;-78
2021/06/24 10:40:39;;;;;;;0.10;0.10;;;27.10;63.50;;;;;;4966729;28;20020;-78
2021/06/24 10:43:13;;;;;;;0.00;0.00;;;27.20;61.80;;;;;;4978091;28;20022;-77
2021/06/24 10:45:40;;;;;;;0.10;0.10;;;27.40;62.50;;;;;;4993681;28;20033;-78
2021/06/24 10:48:23;;;;;;;0.00;0.00;;;27.80;60.90;;;;;;4995758;28;20049;-77
2021/06/24 10:50:56;;;;;;;0.00;0.00;;;27.60;60.80;;;;;;4945610;28;20027;-78
2021/06/24 10:53:22;;;;;;;0.00;0.00;;;28.10;59.80;;;;;;5015356;28;20077;-78
2021/06/24 10:55:50;;;;;;;4.57;3.83;;;28.30;60.30;;;;;;4948801;28;20058;-76
2021/06/24 10:58:25;;;;;;;0.45;0.13;;;28.40;58.80;;;;;;4938138;28;20386;-77
2021/06/24 11:00:55;;;;;;;0.63;0.60;;;28.80;58.00;;;;;;4993985;28;20014;-76
2021/06/24 11:05:55;;;;;;;0.15;0.05;;;29.00;57.30;;;;;;4987949;28;20039;-73
2021/06/24 11:08:30;;;;;;;0.10;0.10;;;29.10;56.60;;;;;;5034010;28;20400;-73
2021/06/24 11:10:58;;;;;;;0.00;0.00;;;29.30;56.60;;;;;;4984640;28;20569;-73
2021/06/24 11:13:37;;;;;;;0.00;0.00;;;29.10;57.00;;;;;;5052248;28;20024;-73
2021/06/24 11:16:24;;;;;;;0.00;0.00;;;28.60;58.10;;;;;;5002907;28;20426;-70
2021/06/24 11:18:59;;;;;;;0.10;0.10;;;28.10;59.40;;;;;;4950011;28;20035;-70
2021/06/24 11:21:28;;;;;;;0.00;0.00;;;27.60;60.00;;;;;;4957156;28;20031;-70
2021/06/24 11:24:08;;;;;;;0.00;0.00;;;27.20;61.80;;;;;;4972189;28;20103;-69
2021/06/24 11:26:37;;;;;;;0.17;0.17;;;26.80;61.70;;;;;;5013454;28;20036;-70
2021/06/24 11:29:16;;;;;;;0.17;0.17;;;26.40;63.30;;;;;;4980499;28;20062;-73
2021/06/24 11:31:56;;;;;;;0.10;0.10;;;26.00;65.00;;;;;;4981757;28;20499;-73
2021/06/24 11:37:07;;;;;;;0.00;0.00;;;25.80;67.60;;;;;;5029507;28;20066;-72
2021/06/24 11:39:39;;;;;;;0.20;0.20;;;25.60;67.00;;;;;;4959866;28;20031;-72
2021/06/24 11:42:08;;;;;;;0.00;0.00;;;25.40;68.50;;;;;;4933465;28;20368;-72
2021/06/24 11:44:41;;;;;;;0.90;0.90;;;25.20;67.90;;;;;;4947950;28;20024;-72
2021/06/24 11:47:12;;;;;;;0.52;0.30;;;24.80;68.40;;;;;;5014509;28;20472;-72
2021/06/24 12:04:01;;;;;;;0.55;0.30;;;24.00;74.40;;;;;;4931010;28;20395;-74
2021/06/24 12:06:47;;;;;;;2.85;1.33;;;23.70;76.40;;;;;;5004543;28;20079;-74
2021/06/24 12:09:14;;;;;;;1.40;0.98;;;23.30;85.90;;;;;;4978452;28;20011;-73
2021/06/24 12:11:41;;;;;;;0.63;0.63;;;21.30;99.90;;;;;;4956569;28;20039;-74
2021/06/24 12:14:25;;;;;;;0.45;0.45;;;20.80;99.90;;;;;;4976180;28;20477;-74
2021/06/24 12:17:08;;;;;;;0.00;0.00;;;20.70;99.90;;;;;;5032902;28;20493;-74
2021/06/24 12:19:42;;;;;;;0.38;0.20;;;20.70;99.90;;;;;;4975116;28;20037;-74
2021/06/24 12:22:07;;;;;;;0.00;0.00;;;20.80;99.90;;;;;;5003042;28;20093;-74
2021/06/24 12:24:34;;;;;;;0.05;0.05;;;21.00;99.90;;;;;;4970764;28;20035;-74
2021/06/24 12:27:27;;;;;;;0.93;0.80;;;21.20;99.90;;;;;;4931922;28;20098;-74
2021/06/24 12:29:59;;;;;;;0.10;0.10;;;21.50;99.90;;;;;;4985641;28;20070;-74
2021/06/24 12:32:26;;;;;;;0.13;0.13;;;21.80;99.90;;;;;;4983638;28;20387;-75
2021/06/24 12:34:55;;;;;;;0.00;0.00;;;22.10;99.90;;;;;;4999953;28;20108;-74
2021/06/24 12:37:45;;;;;;;0.00;0.00;;;22.50;99.90;;;;;;4987794;28;20100;-75
2021/06/24 12:40:13;;;;;;;0.00;0.00;;;22.70;99.90;;;;;;5026265;28;20110;-75
2021/06/24 12:42:44;;;;;;;0.57;0.57;;;22.80;99.90;;;;;;4978630;28;20429;-75
2021/06/24 12:45:11;;;;;;;0.10;0.10;;;22.90;99.90;;;;;;5011538;28;20086;-74
2021/06/24 12:47:44;;;;;;;0.00;0.00;;;22.90;99.90;;;;;;4948560;28;20440;-74
2021/06/24 12:50:14;;;;;;;0.00;0.00;;;23.00;99.90;;;;;;4936764;28;20055;-74
2021/06/24 12:52:51;;;;;;;0.00;0.00;;;23.00;99.90;;;;;;5004824;28;20018;-75
2021/06/24 12:55:43;;;;;;;0.10;0.10;;;23.30;99.90;;;;;;4942883;28;20066;-73
2021/06/24 12:58:08;;;;;;;0.10;0.10;;;23.50;99.90;;;;;;4982322;28;20040;-73
2021/06/24 13:00:35;;;;;;;1.38;1.27;;;23.80;99.90;;;;;;4971429;28;20029;-72
2021/06/24 13:03:01;;;;;;;0.00;0.00;;;23.90;99.90;;;;;;4919138;28;20124;-73
2021/06/24 13:05:27;;;;;;;0.10;0.10;;;24.20;99.90;;;;;;4969780;28;20023;-73
2021/06/24 13:08:05;;;;;;;0.20;0.20;;;24.30;99.90;;;;;;5020001;28;20021;-73
2021/06/24 13:10:43;;;;;;;0.08;0.08;;;24.40;99.40;;;;;;4998376;28;20022;-73
2021/06/24 13:13:25;;;;;;;0.20;0.20;;;24.30;99.10;;;;;;4956813;28;20115;-73